sensor_id;sensor_type;location;lat;lon;timestamp;temperature;humidity
75164;HTU21D;63746;45.402;37.922;2023-11-19T00:00:57;8.53;73.17
75164;HTU21D;63746;45.402;37.922;2023-11-19T00:03:23;8.55;73.19
75164;HTU21D;63746;45.402;37.922;2023-11-19T00:05:49;8.56;73.15
75164;HTU21D;63746;45.402;37.922;2023-11-19T00:08:16;8.58;73.12
75164;HTU21D;63746;45.402;37.922;2023-11-19T00:10:42;8.60;73.16
75164;HTU21D;63746;45.402;37.922;2023-11-19T00:13:08;8.62;73.10
75164;HTU21D;63746;45.402;37.922;2023-11-19T00:15:35;8.62;73.06
75164;HTU21D;63746;45.402;37.922;2023-11-19T00:18:01;8.63;73.08
75164;HTU21D;63746;45.402;37.922;2023-11-19T00:20:30;8.65;73.08
75164;HTU21D;63746;45.402;37.922;2023-11-19T00:22:56;8.66;73.22
75164;HTU21D;63746;45.402;37.922;2023-11-19T00:25:22;8.67;73.15
75164;HTU21D;63746;45.402;37.922;2023-11-19T00:27:48;8.70;73.13
75164;HTU21D;63746;45.402;37.922;2023-11-19T00:30:14;8.70;73.15
75164;HTU21D;63746;45.402;37.922;2023-11-19T00:32:41;8.70;73.20
75164;HTU21D;63746;45.402;37.922;2023-11-19T00:35:07;8.71;73.15
75164;HTU21D;63746;45.402;37.922;2023-11-19T00:37:34;8.73;73.08
75164;HTU21D;63746;45.402;37.922;2023-11-19T00:40:00;8.72;73.12
75164;HTU21D;63746;45.402;37.922;2023-11-19T00:42:26;8.71;73.17
75164;HTU21D;63746;45.402;37.922;2023-11-19T00:44:52;8.73;73.15
75164;HTU21D;63746;45.402;37.922;2023-11-19T00:47:19;8.73;73.09
75164;HTU21D;63746;45.402;37.922;2023-11-19T00:49:48;8.74;73.11
75164;HTU21D;63746;45.402;37.922;2023-11-19T00:52:15;8.75;73.04
75164;HTU21D;63746;45.402;37.922;2023-11-19T00:54:41;8.76;73.03
75164;HTU21D;63746;45.402;37.922;2023-11-19T00:57:07;8.76;72.98
75164;HTU21D;63746;45.402;37.922;2023-11-19T00:59:33;8.77;73.02
75164;HTU21D;63746;45.402;37.922;2023-11-19T01:01:59;8.76;73.03
75164;HTU21D;63746;45.402;37.922;2023-11-19T01:04:34;8.77;73.01
75164;HTU21D;63746;45.402;37.922;2023-11-19T01:07:04;8.77;73.08
75164;HTU21D;63746;45.402;37.922;2023-11-19T01:09:31;8.77;73.09
75164;HTU21D;63746;45.402;37.922;2023-11-19T01:12:01;8.76;72.92
75164;HTU21D;63746;45.402;37.922;2023-11-19T01:14:28;8.76;72.99
75164;HTU21D;63746;45.402;37.922;2023-11-19T01:16:54;8.77;73.04
75164;HTU21D;63746;45.402;37.922;2023-11-19T01:19:23;8.77;72.96
75164;HTU21D;63746;45.402;37.922;2023-11-19T01:21:51;8.77;73.04
75164;HTU21D;63746;45.402;37.922;2023-11-19T01:24:17;8.78;72.99
75164;HTU21D;63746;45.402;37.922;2023-11-19T01:26:43;8.79;72.93
75164;HTU21D;63746;45.402;37.922;2023-11-19T01:29:15;8.80;72.93
75164;HTU21D;63746;45.402;37.922;2023-11-19T01:31:41;8.78;73.15
75164;HTU21D;63746;45.402;37.922;2023-11-19T01:34:08;8.78;73.03
75164;HTU21D;63746;45.402;37.922;2023-11-19T01:36:34;8.76;73.08
75164;HTU21D;63746;45.402;37.922;2023-11-19T01:39:00;8.76;73.05
75164;HTU21D;63746;45.402;37.922;2023-11-19T01:41:27;8.77;73.06
75164;HTU21D;63746;45.402;37.922;2023-11-19T01:43:53;8.77;73.06
75164;HTU21D;63746;45.402;37.922;2023-11-19T01:46:20;8.79;73.08
75164;HTU21D;63746;45.402;37.922;2023-11-19T01:48:46;8.80;73.02
75164;HTU21D;63746;45.402;37.922;2023-11-19T01:51:13;8.81;73.03
75164;HTU21D;63746;45.402;37.922;2023-11-19T01:53:43;8.82;73.01
75164;HTU21D;63746;45.402;37.922;2023-11-19T01:56:10;8.85;72.98
75164;HTU21D;63746;45.402;37.922;2023-11-19T01:58:38;8.83;72.97
75164;HTU21D;63746;45.402;37.922;2023-11-19T02:01:08;8.86;72.92
75164;HTU21D;63746;45.402;37.922;2023-11-19T02:03:35;8.85;72.83
75164;HTU21D;63746;45.402;37.922;2023-11-19T02:06:01;8.86;72.86
75164;HTU21D;63746;45.402;37.922;2023-11-19T02:08:27;8.86;72.88
75164;HTU21D;63746;45.402;37.922;2023-11-19T02:10:53;8.86;72.95
75164;HTU21D;63746;45.402;37.922;2023-11-19T02:13:22;8.85;72.94
75164;HTU21D;63746;45.402;37.922;2023-11-19T02:15:48;8.86;72.91
75164;HTU21D;63746;45.402;37.922;2023-11-19T02:18:25;8.87;72.89
75164;HTU21D;63746;45.402;37.922;2023-11-19T02:20:54;8.86;72.96
75164;HTU21D;63746;45.402;37.922;2023-11-19T02:23:21;8.85;72.89
75164;HTU21D;63746;45.402;37.922;2023-11-19T02:28:21;8.83;73.09
75164;HTU21D;63746;45.402;37.922;2023-11-19T02:30:47;8.85;72.95
75164;HTU21D;63746;45.402;37.922;2023-11-19T02:33:13;8.86;72.95
75164;HTU21D;63746;45.402;37.922;2023-11-19T02:35:41;8.86;72.99
75164;HTU21D;63746;45.402;37.922;2023-11-19T02:38:06;8.85;72.96
75164;HTU21D;63746;45.402;37.922;2023-11-19T02:40:33;8.83;73.01
75164;HTU21D;63746;45.402;37.922;2023-11-19T02:42:59;8.82;72.97
75164;HTU21D;63746;45.402;37.922;2023-11-19T02:45:26;8.82;73.06
75164;HTU21D;63746;45.402;37.922;2023-11-19T02:47:55;8.82;72.97
75164;HTU21D;63746;45.402;37.922;2023-11-19T02:50:21;8.82;73.05
75164;HTU21D;63746;45.402;37.922;2023-11-19T02:52:52;8.81;72.99
75164;HTU21D;63746;45.402;37.922;2023-11-19T02:55:19;8.82;73.05
75164;HTU21D;63746;45.402;37.922;2023-11-19T02:57:45;8.82;73.03
75164;HTU21D;63746;45.402;37.922;2023-11-19T03:00:18;8.82;72.98
75164;HTU21D;63746;45.402;37.922;2023-11-19T03:02:45;8.82;73.06
75164;HTU21D;63746;45.402;37.922;2023-11-19T03:05:20;8.80;72.99
75164;HTU21D;63746;45.402;37.922;2023-11-19T03:07:46;8.82;73.04
75164;HTU21D;63746;45.402;37.922;2023-11-19T03:10:12;8.80;73.09
75164;HTU21D;63746;45.402;37.922;2023-11-19T03:12:44;8.81;73.10
75164;HTU21D;63746;45.402;37.922;2023-11-19T03:15:11;8.79;72.96
75164;HTU21D;63746;45.402;37.922;2023-11-19T03:17:41;8.79;72.95
75164;HTU21D;63746;45.402;37.922;2023-11-19T03:20:10;8.77;73.03
75164;HTU21D;63746;45.402;37.922;2023-11-19T03:22:37;8.77;73.02
75164;HTU21D;63746;45.402;37.922;2023-11-19T03:25:03;8.75;72.93
75164;HTU21D;63746;45.402;37.922;2023-11-19T03:27:30;8.74;72.99
75164;HTU21D;63746;45.402;37.922;2023-11-19T03:29:56;8.73;73.06
75164;HTU21D;63746;45.402;37.922;2023-11-19T03:32:22;8.71;73.11
75164;HTU21D;63746;45.402;37.922;2023-11-19T03:34:48;8.68;73.09
75164;HTU21D;63746;45.402;37.922;2023-11-19T03:37:14;8.67;73.22
75164;HTU21D;63746;45.402;37.922;2023-11-19T03:39:43;8.66;73.48
75164;HTU21D;63746;45.402;37.922;2023-11-19T03:42:09;8.63;73.60
75164;HTU21D;63746;45.402;37.922;2023-11-19T03:44:35;8.60;73.58
75164;HTU21D;63746;45.402;37.922;2023-11-19T03:47:01;8.60;73.53
75164;HTU21D;63746;45.402;37.922;2023-11-19T03:49:27;8.61;73.52
75164;HTU21D;63746;45.402;37.922;2023-11-19T03:51:53;8.60;73.64
75164;HTU21D;63746;45.402;37.922;2023-11-19T03:54:19;8.60;73.73
75164;HTU21D;63746;45.402;37.922;2023-11-19T03:56:47;8.61;73.70
75164;HTU21D;63746;45.402;37.922;2023-11-19T03:59:12;8.62;73.72
75164;HTU21D;63746;45.402;37.922;2023-11-19T04:01:38;8.63;73.81
75164;HTU21D;63746;45.402;37.922;2023-11-19T04:04:05;8.64;73.76
75164;HTU21D;63746;45.402;37.922;2023-11-19T04:06:31;8.65;73.83
75164;HTU21D;63746;45.402;37.922;2023-11-19T04:08:57;8.65;73.72
75164;HTU21D;63746;45.402;37.922;2023-11-19T04:11:23;8.65;73.89
75164;HTU21D;63746;45.402;37.922;2023-11-19T04:13:49;8.66;73.77
75164;HTU21D;63746;45.402;37.922;2023-11-19T04:16:15;8.67;73.83
75164;HTU21D;63746;45.402;37.922;2023-11-19T04:18:41;8.67;73.90
75164;HTU21D;63746;45.402;37.922;2023-11-19T04:21:08;8.70;73.84
75164;HTU21D;63746;45.402;37.922;2023-11-19T04:23:34;8.68;73.73
75164;HTU21D;63746;45.402;37.922;2023-11-19T04:26:03;8.70;73.75
75164;HTU21D;63746;45.402;37.922;2023-11-19T04:28:30;8.68;73.75
75164;HTU21D;63746;45.402;37.922;2023-11-19T04:30:56;8.68;73.81
75164;HTU21D;63746;45.402;37.922;2023-11-19T04:33:24;8.68;73.87
75164;HTU21D;63746;45.402;37.922;2023-11-19T04:35:50;8.68;74.01
75164;HTU21D;63746;45.402;37.922;2023-11-19T04:38:17;8.68;73.93
75164;HTU21D;63746;45.402;37.922;2023-11-19T04:40:43;8.68;74.02
75164;HTU21D;63746;45.402;37.922;2023-11-19T04:43:09;8.70;73.83
75164;HTU21D;63746;45.402;37.922;2023-11-19T04:45:36;8.70;73.71
75164;HTU21D;63746;45.402;37.922;2023-11-19T04:48:02;8.68;73.72
75164;HTU21D;63746;45.402;37.922;2023-11-19T04:50:28;8.68;73.64
75164;HTU21D;63746;45.402;37.922;2023-11-19T04:52:54;8.65;73.75
75164;HTU21D;63746;45.402;37.922;2023-11-19T04:55:21;8.63;73.61
75164;HTU21D;63746;45.402;37.922;2023-11-19T04:57:47;8.62;73.57
75164;HTU21D;63746;45.402;37.922;2023-11-19T05:00:13;8.60;73.54
75164;HTU21D;63746;45.402;37.922;2023-11-19T05:02:39;8.58;73.70
75164;HTU21D;63746;45.402;37.922;2023-11-19T05:05:05;8.56;73.53
75164;HTU21D;63746;45.402;37.922;2023-11-19T05:07:32;8.52;73.44
75164;HTU21D;63746;45.402;37.922;2023-11-19T05:09:58;8.50;73.41
75164;HTU21D;63746;45.402;37.922;2023-11-19T05:12:24;8.49;73.38
75164;HTU21D;63746;45.402;37.922;2023-11-19T05:14:50;8.45;73.44
75164;HTU21D;63746;45.402;37.922;2023-11-19T05:17:17;8.43;73.39
75164;HTU21D;63746;45.402;37.922;2023-11-19T05:19:46;8.42;73.53
75164;HTU21D;63746;45.402;37.922;2023-11-19T05:22:13;8.41;73.64
75164;HTU21D;63746;45.402;37.922;2023-11-19T05:24:39;8.37;73.56
75164;HTU21D;63746;45.402;37.922;2023-11-19T05:27:06;8.35;73.54
75164;HTU21D;63746;45.402;37.922;2023-11-19T05:29:33;8.34;73.46
75164;HTU21D;63746;45.402;37.922;2023-11-19T05:31:59;8.32;73.52
75164;HTU21D;63746;45.402;37.922;2023-11-19T05:34:27;8.29;73.53
75164;HTU21D;63746;45.402;37.922;2023-11-19T05:36:53;8.27;73.69
75164;HTU21D;63746;45.402;37.922;2023-11-19T05:39:19;8.24;73.66
75164;HTU21D;63746;45.402;37.922;2023-11-19T05:41:45;8.22;73.70
75164;HTU21D;63746;45.402;37.922;2023-11-19T05:44:11;8.20;73.74
75164;HTU21D;63746;45.402;37.922;2023-11-19T05:46:37;8.19;73.95
75164;HTU21D;63746;45.402;37.922;2023-11-19T05:49:08;8.17;73.79
75164;HTU21D;63746;45.402;37.922;2023-11-19T05:51:38;8.17;73.73
75164;HTU21D;63746;45.402;37.922;2023-11-19T05:54:07;8.15;73.83
75164;HTU21D;63746;45.402;37.922;2023-11-19T05:56:33;8.14;73.87
75164;HTU21D;63746;45.402;37.922;2023-11-19T05:58:59;8.15;73.93
75164;HTU21D;63746;45.402;37.922;2023-11-19T06:01:40;8.14;73.93
75164;HTU21D;63746;45.402;37.922;2023-11-19T06:04:07;8.13;74.00
75164;HTU21D;63746;45.402;37.922;2023-11-19T06:06:33;8.13;73.86
75164;HTU21D;63746;45.402;37.922;2023-11-19T06:08:59;8.13;73.84
75164;HTU21D;63746;45.402;37.922;2023-11-19T06:11:28;8.14;74.33
75164;HTU21D;63746;45.402;37.922;2023-11-19T06:13:54;8.11;74.06
75164;HTU21D;63746;45.402;37.922;2023-11-19T06:16:20;8.08;73.90
75164;HTU21D;63746;45.402;37.922;2023-11-19T06:18:46;8.08;73.80
75164;HTU21D;63746;45.402;37.922;2023-11-19T06:21:12;8.09;73.81
75164;HTU21D;63746;45.402;37.922;2023-11-19T06:23:38;8.08;73.82
75164;HTU21D;63746;45.402;37.922;2023-11-19T06:26:04;8.11;73.72
75164;HTU21D;63746;45.402;37.922;2023-11-19T06:28:31;8.11;73.80
75164;HTU21D;63746;45.402;37.922;2023-11-19T06:30:57;8.11;73.75
75164;HTU21D;63746;45.402;37.922;2023-11-19T06:33:24;8.09;73.68
75164;HTU21D;63746;45.402;37.922;2023-11-19T06:35:50;8.09;73.76
75164;HTU21D;63746;45.402;37.922;2023-11-19T06:38:16;8.09;73.77
75164;HTU21D;63746;45.402;37.922;2023-11-19T06:40:42;8.08;73.87
75164;HTU21D;63746;45.402;37.922;2023-11-19T06:43:08;8.07;73.80
75164;HTU21D;63746;45.402;37.922;2023-11-19T06:45:34;8.08;73.79
75164;HTU21D;63746;45.402;37.922;2023-11-19T06:48:03;8.08;73.85
75164;HTU21D;63746;45.402;37.922;2023-11-19T06:50:29;8.09;73.83
75164;HTU21D;63746;45.402;37.922;2023-11-19T06:52:55;8.11;73.77
75164;HTU21D;63746;45.402;37.922;2023-11-19T06:55:21;8.07;73.93
75164;HTU21D;63746;45.402;37.922;2023-11-19T06:57:47;8.08;73.90
75164;HTU21D;63746;45.402;37.922;2023-11-19T07:00:13;8.07;74.01
75164;HTU21D;63746;45.402;37.922;2023-11-19T07:02:40;8.06;73.97
75164;HTU21D;63746;45.402;37.922;2023-11-19T07:05:06;8.05;73.93
75164;HTU21D;63746;45.402;37.922;2023-11-19T07:07:34;8.04;73.95
75164;HTU21D;63746;45.402;37.922;2023-11-19T07:10:01;8.06;73.88
75164;HTU21D;63746;45.402;37.922;2023-11-19T07:12:28;8.06;73.83
75164;HTU21D;63746;45.402;37.922;2023-11-19T07:14:54;8.07;73.91
75164;HTU21D;63746;45.402;37.922;2023-11-19T07:17:20;8.06;74.00
